createdAt,value
2018-12-12T06:25:37.171Z,37.43
2018-12-12T06:28:09.646Z,38.43
2018-12-12T06:30:42.103Z,38.83
2018-12-12T06:33:15.184Z,39.77
2018-12-12T06:35:47.633Z,38.07
2018-12-12T06:38:20.365Z,44.43
2018-12-12T06:40:53.010Z,37.33
2018-12-12T06:43:25.550Z,36.40
2018-12-12T06:45:57.980Z,41.07
2018-12-12T06:48:30.652Z,49.60
2018-12-12T06:51:03.423Z,39.73
2018-12-12T06:53:35.874Z,42.93
2018-12-12T06:56:08.358Z,45.10
2018-12-12T06:58:41.003Z,33.07
2018-12-12T07:01:13.450Z,37.53
2018-12-12T07:03:45.881Z,41.47
2018-12-12T07:06:18.393Z,39.57
2018-12-12T07:08:52.007Z,35.80
2018-12-12T07:11:24.499Z,40.00
2018-12-12T07:13:56.959Z,35.60
2018-12-12T07:16:29.385Z,39.20
2018-12-12T07:19:01.831Z,40.00
2018-12-12T07:21:35.011Z,34.27
2018-12-12T07:24:07.445Z,37.60
2018-12-12T07:26:40.172Z,49.10
2018-12-12T07:29:12.608Z,41.23
2018-12-12T07:31:45.370Z,40.63
2018-12-12T07:34:17.805Z,39.57
2018-12-12T07:36:50.233Z,43.43
2018-12-12T07:39:22.689Z,39.17
2018-12-12T07:41:55.356Z,37.40
2018-12-12T07:44:28.121Z,38.80
2018-12-12T07:47:00.530Z,41.87
2018-12-12T07:49:32.946Z,38.60
2018-12-12T07:52:05.373Z,35.63
2018-12-12T07:54:37.799Z,45.00
2018-12-12T07:57:10.321Z,43.03
2018-12-12T07:59:42.769Z,38.80
2018-12-12T08:02:15.422Z,37.87
2018-12-12T08:04:47.865Z,42.17
2018-12-12T08:07:20.296Z,38.63
2018-12-12T08:09:52.741Z,35.97
2018-12-12T08:12:25.160Z,33.10
2018-12-12T08:14:57.824Z,41.17
2018-12-12T08:17:30.233Z,45.30
2018-12-12T08:20:02.663Z,54.77
2018-12-12T08:22:35.348Z,42.70
2018-12-12T08:25:08.011Z,43.07
2018-12-12T08:27:40.982Z,37.23
2018-12-12T08:30:13.393Z,42.37
2018-12-12T08:32:47.041Z,45.37
2018-12-12T08:35:19.469Z,42.87
2018-12-12T08:37:51.929Z,41.47
2018-12-12T08:40:24.920Z,43.33
2018-12-12T08:42:57.363Z,35.87
2018-12-12T08:45:29.784Z,37.97
2018-12-12T08:48:02.445Z,35.93
2018-12-12T08:50:35.120Z,35.27
2018-12-12T08:53:07.588Z,38.47
2018-12-12T08:55:39.984Z,37.10
2018-12-12T08:58:12.392Z,38.10
2018-12-12T09:00:45.837Z,32.57
2018-12-12T09:03:18.238Z,33.13
2018-12-12T09:05:50.652Z,37.77
2018-12-12T09:08:23.064Z,39.63
2018-12-12T09:10:55.804Z,36.17
2018-12-12T09:13:28.690Z,31.73
2018-12-12T09:16:01.203Z,42.97
2018-12-12T09:18:34.612Z,31.53
2018-12-12T09:21:07.025Z,33.30
2018-12-12T09:23:39.436Z,77.70
2018-12-12T09:26:11.850Z,34.00
2018-12-12T09:28:44.260Z,35.83
2018-12-12T09:31:16.684Z,35.03
2018-12-12T09:33:49.086Z,34.93
2018-12-12T09:36:21.775Z,34.80
2018-12-12T09:38:54.182Z,213.43
2018-12-12T09:41:26.944Z,74.40
2018-12-12T09:43:59.359Z,33.63
2018-12-12T09:46:31.768Z,27.13
2018-12-12T09:49:04.180Z,30.60
2018-12-12T09:51:36.599Z,33.00
2018-12-12T09:54:09.035Z,27.87
2018-12-12T09:56:41.457Z,27.67
2018-12-12T09:59:14.376Z,34.67
2018-12-12T10:01:46.802Z,28.97
2018-12-12T10:04:19.214Z,59.17
2018-12-12T10:06:51.646Z,46.87
2018-12-12T10:09:24.063Z,47.73
2018-12-12T10:11:56.480Z,29.07
2018-12-12T10:14:28.908Z,56.27
2018-12-12T10:17:01.339Z,24.63
2018-12-12T10:19:33.758Z,28.03
2018-12-12T10:22:06.189Z,20.73
2018-12-12T10:24:38.600Z,20.97
2018-12-12T10:27:11.028Z,21.40
2018-12-12T10:29:43.453Z,23.13
2018-12-12T10:32:15.872Z,19.03
2018-12-12T10:34:48.294Z,23.33
2018-12-12T10:37:20.715Z,24.93
2018-12-12T10:39:53.419Z,20.70
2018-12-12T10:42:26.117Z,22.57
2018-12-12T10:44:58.532Z,20.33
2018-12-12T10:47:31.263Z,21.77
2018-12-12T10:50:04.948Z,25.03
2018-12-12T10:52:37.663Z,25.07
2018-12-12T10:55:10.061Z,23.00
2018-12-12T10:57:42.800Z,31.30
2018-12-12T11:00:15.568Z,25.13
2018-12-12T11:02:48.016Z,25.97
2018-12-12T11:05:21.125Z,24.47
2018-12-12T11:07:53.828Z,27.40
2018-12-12T11:10:26.244Z,111.60
2018-12-12T11:12:58.684Z,25.20
2018-12-12T11:15:31.172Z,35.70
2018-12-12T11:18:03.592Z,18.43
2018-12-12T11:20:36.264Z,21.50
2018-12-12T11:23:08.987Z,16.27
2018-12-12T11:25:41.393Z,13.27
2018-12-12T11:28:14.120Z,9.60
2018-12-12T11:30:46.540Z,10.60
2018-12-12T11:33:18.975Z,9.50
2018-12-12T11:35:51.380Z,7.53
2018-12-12T11:38:23.927Z,5.37
2018-12-12T11:40:56.327Z,7.67
2018-12-12T11:43:29.080Z,7.40
2018-12-12T11:46:01.492Z,5.83
2018-12-12T11:48:33.967Z,6.53
2018-12-12T11:51:06.380Z,4.53
2018-12-12T11:53:39.065Z,6.37
2018-12-12T11:56:11.728Z,5.67
2018-12-12T11:58:44.161Z,5.83
2018-12-12T12:01:16.816Z,3.77
2018-12-12T12:03:49.273Z,4.37
2018-12-12T12:06:21.703Z,4.33
2018-12-12T12:08:54.226Z,6.57
2018-12-12T12:11:26.633Z,4.00
2018-12-12T12:13:59.090Z,5.10
2018-12-12T12:16:31.859Z,4.87
2018-12-12T12:19:04.301Z,4.90
2018-12-12T12:21:36.778Z,5.10
2018-12-12T12:24:09.197Z,5.20
2018-12-12T12:26:41.700Z,4.93
2018-12-12T12:29:14.428Z,6.33
2018-12-12T12:31:46.864Z,6.33
2018-12-12T12:34:19.680Z,4.97
2018-12-12T12:36:52.366Z,5.57
2018-12-12T12:39:25.040Z,5.27
2018-12-12T12:41:57.477Z,5.57
2018-12-12T12:44:29.901Z,7.03
2018-12-12T12:47:02.365Z,7.10
2018-12-12T12:49:34.946Z,5.77
2018-12-12T12:52:07.720Z,8.03
2018-12-12T12:54:40.164Z,7.47
2018-12-12T12:57:12.621Z,9.53
2018-12-12T12:59:45.320Z,28.23
2018-12-12T13:02:17.773Z,13.30
2018-12-12T13:04:50.499Z,19.37
2018-12-12T13:07:23.702Z,7.40
2018-12-12T13:09:56.468Z,6.17
2018-12-12T13:12:29.142Z,7.60
2018-12-12T13:15:01.676Z,8.27
2018-12-12T13:17:34.103Z,6.53
2018-12-12T13:20:06.539Z,8.13
2018-12-12T13:22:38.971Z,8.07
2018-12-12T13:25:11.400Z,5.63
2018-12-12T13:30:22.884Z,7.20
2018-12-12T13:32:55.334Z,6.63
2018-12-12T13:35:27.744Z,7.63
2018-12-12T13:38:00.181Z,7.27
2018-12-12T13:40:32.599Z,8.20
2018-12-12T13:43:05.392Z,5.87
2018-12-12T13:45:37.831Z,7.53
2018-12-12T13:48:10.388Z,5.10
2018-12-12T13:50:42.808Z,9.77
2018-12-12T13:53:15.495Z,7.97
2018-12-12T13:55:48.165Z,5.60
2018-12-12T13:58:20.580Z,7.53
2018-12-12T14:00:53.010Z,9.00
2018-12-12T14:03:25.564Z,6.87
2018-12-12T14:05:57.976Z,6.53
2018-12-12T14:08:30.436Z,7.00
2018-12-12T14:11:03.226Z,6.63
2018-12-12T14:13:35.893Z,9.03
2018-12-12T14:16:08.540Z,8.57
2018-12-12T14:18:41.059Z,7.67
2018-12-12T14:21:13.456Z,10.07
2018-12-12T14:23:46.092Z,7.70
2018-12-12T14:26:18.780Z,7.07
2018-12-12T14:28:51.460Z,5.60
2018-12-12T14:31:24.111Z,7.07
2018-12-12T14:33:56.515Z,8.07
2018-12-12T14:36:29.028Z,6.57
2018-12-12T14:39:01.439Z,7.33
2018-12-12T14:41:33.977Z,5.63
2018-12-12T14:44:07.018Z,7.53
2018-12-12T14:46:39.444Z,6.53
2018-12-12T14:49:11.861Z,7.97
2018-12-12T14:51:44.279Z,7.57
2018-12-12T14:54:16.687Z,6.47
2018-12-12T14:56:49.099Z,11.30
2018-12-12T14:59:21.524Z,8.60
2018-12-12T15:01:53.975Z,8.07
2018-12-12T15:04:26.686Z,10.53
2018-12-12T15:06:59.420Z,8.33
2018-12-12T15:09:31.836Z,9.27
2018-12-12T15:12:04.264Z,7.97
2018-12-12T15:14:36.692Z,8.80
2018-12-12T15:17:09.104Z,7.60
2018-12-12T15:19:42.056Z,6.73
2018-12-12T15:22:14.583Z,7.03
2018-12-12T15:24:47.003Z,8.87
2018-12-12T15:27:19.436Z,7.90
2018-12-12T15:29:52.141Z,10.77
2018-12-12T15:32:24.552Z,8.47
2018-12-12T15:34:57.054Z,13.87
2018-12-12T15:37:29.455Z,8.20
2018-12-12T15:40:01.859Z,7.60
2018-12-12T15:42:34.282Z,9.97
2018-12-12T15:45:07.554Z,11.00
2018-12-12T15:47:39.949Z,13.73
2018-12-12T15:50:12.361Z,10.83
2018-12-12T15:52:44.777Z,13.57
2018-12-12T15:55:17.507Z,11.63
2018-12-12T15:57:49.959Z,11.77
2018-12-12T16:00:22.395Z,8.33
2018-12-12T16:02:55.163Z,8.63
2018-12-12T16:05:27.575Z,9.97
2018-12-12T16:08:00.281Z,9.03
2018-12-12T16:10:32.719Z,9.07
2018-12-12T16:13:05.145Z,9.67
2018-12-12T16:15:37.827Z,8.17
2018-12-12T16:18:10.246Z,13.13
2018-12-12T16:20:42.664Z,10.30
2018-12-12T16:23:15.122Z,13.30
2018-12-12T16:25:47.517Z,13.67
2018-12-12T16:28:19.928Z,12.13
2018-12-12T16:30:52.673Z,11.17
2018-12-12T16:33:25.117Z,10.43
2018-12-12T16:35:57.565Z,14.27
2018-12-12T16:38:29.964Z,9.73
2018-12-12T16:41:02.379Z,13.43
2018-12-12T16:43:34.784Z,12.83
2018-12-12T16:46:07.233Z,13.60
2018-12-12T16:48:39.646Z,14.23
2018-12-12T16:51:12.083Z,13.53
2018-12-12T16:53:44.486Z,13.57
2018-12-12T16:56:16.908Z,15.97
2018-12-12T16:58:49.312Z,14.63
2018-12-12T17:01:21.842Z,14.67
2018-12-12T17:03:54.320Z,12.10
2018-12-12T17:06:26.770Z,13.97
2018-12-12T17:08:59.173Z,12.67
2018-12-12T17:11:31.584Z,14.53
2018-12-12T17:14:04.037Z,13.90
2018-12-12T17:16:36.460Z,14.00
2018-12-12T17:19:08.878Z,15.77
2018-12-12T17:21:41.264Z,13.23
2018-12-12T17:24:13.696Z,13.47
2018-12-12T17:26:46.344Z,13.83
2018-12-12T17:29:19.028Z,14.50
2018-12-12T17:31:51.433Z,15.23
2018-12-12T17:34:24.228Z,12.40
2018-12-12T17:36:56.630Z,16.73
2018-12-12T17:39:29.138Z,20.20
2018-12-12T17:42:01.530Z,15.53
2018-12-12T17:44:34.500Z,12.90
2018-12-12T17:47:07.007Z,14.17
2018-12-12T17:49:39.980Z,16.03
2018-12-12T17:52:12.377Z,15.90
2018-12-12T17:54:44.788Z,15.03
2018-12-12T17:57:17.192Z,15.50
2018-12-12T17:59:49.880Z,18.23
2018-12-12T18:02:22.285Z,13.73
2018-12-12T18:04:54.704Z,14.07
2018-12-12T18:07:27.136Z,15.43
2018-12-12T18:09:59.808Z,15.00
2018-12-12T18:12:32.252Z,17.93
2018-12-12T18:15:04.721Z,12.90
2018-12-12T18:17:37.356Z,12.93
2018-12-12T18:20:09.809Z,16.50
2018-12-12T18:22:42.219Z,13.87
2018-12-12T18:25:14.645Z,12.87
2018-12-12T18:27:47.376Z,12.33
2018-12-12T18:30:19.861Z,14.33
2018-12-12T18:32:52.277Z,13.77
2018-12-12T18:35:24.713Z,12.00
2018-12-12T18:37:57.141Z,11.53
2018-12-12T18:40:29.592Z,14.43
2018-12-12T18:43:01.995Z,14.00
2018-12-12T18:45:34.431Z,12.13
2018-12-12T18:48:07.085Z,14.67
2018-12-12T18:50:40.177Z,14.57
2018-12-12T18:53:12.613Z,14.90
2018-12-12T18:55:45.839Z,15.00
2018-12-12T18:58:18.266Z,19.50
2018-12-12T19:00:51.075Z,19.73
2018-12-12T19:03:23.742Z,17.87
2018-12-12T19:05:56.156Z,20.10
2018-12-12T19:08:28.561Z,20.03
2018-12-12T19:11:01.269Z,20.77
2018-12-12T19:13:33.704Z,19.50
2018-12-12T19:16:06.239Z,18.80
2018-12-12T19:18:38.913Z,20.03
2018-12-12T19:21:11.345Z,19.80
2018-12-12T19:23:43.804Z,14.70
2018-12-12T19:26:16.448Z,14.20
2018-12-12T19:28:49.205Z,18.17
2018-12-12T19:31:21.620Z,15.73
2018-12-12T19:33:54.281Z,17.33
2018-12-12T19:36:27.044Z,21.03
2018-12-12T19:39:00.012Z,17.83
2018-12-12T19:41:32.740Z,14.43
2018-12-12T19:44:05.649Z,12.23
2018-12-12T19:46:38.095Z,12.27
2018-12-12T19:49:10.761Z,13.83
2018-12-12T19:51:43.192Z,13.40
2018-12-12T19:54:15.909Z,11.20
2018-12-12T19:56:48.350Z,11.10
2018-12-12T19:59:21.031Z,10.50
2018-12-12T20:01:53.768Z,13.13
2018-12-12T20:04:26.175Z,10.87
2018-12-12T20:06:58.614Z,11.33
2018-12-12T20:09:31.040Z,12.33
2018-12-12T20:12:03.445Z,11.70
2018-12-12T20:14:36.192Z,13.13
2018-12-12T20:17:08.646Z,9.50
2018-12-12T20:19:41.160Z,11.53
2018-12-12T20:22:13.589Z,12.23
2018-12-12T20:24:46.005Z,10.83
2018-12-12T20:27:18.451Z,11.47
2018-12-12T20:29:50.868Z,11.87
2018-12-12T20:32:23.283Z,11.63
2018-12-12T20:34:55.707Z,10.37
2018-12-12T20:37:28.133Z,9.07
2018-12-12T20:40:00.553Z,11.67
2018-12-12T20:42:33.359Z,10.57
2018-12-12T20:45:06.082Z,9.63
2018-12-12T20:47:38.564Z,13.20
2018-12-12T20:50:11.673Z,11.17
2018-12-12T20:52:44.118Z,10.23
2018-12-12T20:55:16.823Z,9.63
2018-12-12T20:57:49.245Z,10.80
2018-12-12T21:00:21.672Z,11.50
2018-12-12T21:02:54.349Z,9.50
2018-12-12T21:05:26.748Z,11.20
2018-12-12T21:07:59.325Z,9.63
2018-12-12T21:10:31.839Z,9.33
2018-12-12T21:13:04.273Z,9.13
2018-12-12T21:15:36.924Z,11.13
2018-12-12T21:18:09.339Z,16.37
2018-12-12T21:20:41.739Z,11.90
2018-12-12T21:23:14.173Z,10.20
2018-12-12T21:25:46.593Z,10.30
2018-12-12T21:28:19.012Z,11.03
2018-12-12T21:30:51.506Z,12.30
2018-12-12T21:33:23.940Z,10.50
